createdAt,value
2022-11-22T03:51:27.318Z,100
2022-11-22T03:57:18.399Z,100
2022-11-22T04:03:08.922Z,100
2022-11-22T04:09:03.292Z,100
2022-11-22T04:14:56.214Z,100
2022-11-22T04:20:46.513Z,100
2022-11-22T04:26:37.961Z,100
2022-11-22T04:32:34.275Z,100
2022-11-22T04:38:29.405Z,100
2022-11-22T04:44:22.301Z,100
2022-11-22T04:50:18.793Z,100
2022-11-22T04:56:11.614Z,100
2022-11-22T05:02:07.475Z,100
2022-11-22T05:08:21.739Z,100
2022-11-22T05:14:19.050Z,100
2022-11-22T05:20:09.768Z,100
2022-11-22T05:26:05.624Z,100
2022-11-22T05:31:57.321Z,100
2022-11-22T05:37:52.847Z,100
2022-11-22T05:43:49.078Z,100
2022-11-22T05:49:42.563Z,100
2022-11-22T05:55:35.105Z,100
2022-11-22T06:01:26.893Z,100
2022-11-22T06:07:20.331Z,100
2022-11-22T06:13:13.120Z,100
2022-11-22T06:19:05.014Z,100
2022-11-22T06:25:02.654Z,100
2022-11-22T06:31:05.277Z,100
2022-11-22T06:36:56.438Z,100
2022-11-22T06:42:51.591Z,100
2022-11-22T06:48:44.703Z,100
2022-11-22T06:54:37.805Z,100
2022-11-22T07:00:34.886Z,100
2022-11-22T07:06:25.138Z,100
2022-11-22T07:12:16.989Z,100
2022-11-22T07:18:08.041Z,100
2022-11-22T07:23:59.818Z,100
2022-11-22T07:29:53.585Z,100
2022-11-22T07:35:49.497Z,100
2022-11-22T07:41:40.846Z,100
2022-11-22T07:47:31.819Z,100
2022-11-22T07:53:24.986Z,100
2022-11-22T07:59:16.364Z,100
2022-11-22T08:05:08.976Z,99.4
2022-11-22T08:11:01.502Z,98.9
2022-11-22T08:16:55.840Z,97.5
2022-11-22T08:22:46.479Z,97.5
2022-11-22T08:28:37.855Z,96.1
2022-11-22T08:34:30.262Z,94.3
2022-11-22T08:40:26.652Z,93.1
2022-11-22T08:46:23.461Z,92.8
2022-11-22T08:52:18.068Z,92.1
2022-11-22T08:58:11.822Z,92.9
2022-11-22T09:04:03.477Z,93.6
2022-11-22T09:09:54.034Z,93.4
2022-11-22T09:15:46.287Z,92.2
2022-11-22T09:21:39.402Z,92.4
2022-11-22T09:27:37.975Z,91.9
2022-11-22T09:33:31.062Z,91.2
2022-11-22T09:39:22.504Z,91.4
2022-11-22T09:45:14.744Z,91.1
2022-11-22T09:52:20.667Z,91.2
2022-11-22T09:58:23.711Z,91.3
2022-11-22T10:10:26.743Z,91.1
2022-11-22T10:26:03.771Z,90.5
2022-11-22T10:33:01.091Z,89.5
2022-11-22T10:39:08.950Z,89.5
2022-11-22T10:45:01.153Z,89.1
2022-11-22T10:50:52.899Z,88.8
2022-11-22T10:56:45.081Z,88
2022-11-22T11:02:36.706Z,87.3
2022-11-22T11:09:36.596Z,87.8
2022-11-22T11:16:20.066Z,87.5
2022-11-22T11:22:10.562Z,87.2
2022-11-22T11:28:03.414Z,87.7
2022-11-22T11:33:54.518Z,86.1
2022-11-22T11:39:52.094Z,87.4
2022-11-22T11:45:44.794Z,87.6
2022-11-22T11:51:35.729Z,86.6
2022-11-22T11:57:27.857Z,86.9
2022-11-22T12:03:19.659Z,86.9
2022-11-22T12:09:10.760Z,86.6
2022-11-22T12:15:13.133Z,86.1
2022-11-22T12:21:04.603Z,84.8
2022-11-22T12:26:54.678Z,83.8
2022-11-22T12:32:43.931Z,83
2022-11-22T12:38:34.609Z,83.5
2022-11-22T12:44:25.297Z,83
2022-11-22T12:50:18.278Z,83
2022-11-22T12:56:08.155Z,82.9
2022-11-22T13:01:58.597Z,82.6
2022-11-22T13:07:50.852Z,82.6
2022-11-22T13:13:40.801Z,82.5
2022-11-22T13:19:31.397Z,83.2
2022-11-22T13:25:21.973Z,83.1
2022-11-22T13:31:15.772Z,83.7
2022-11-22T13:37:05.623Z,84.5
2022-11-22T13:42:55.457Z,85.1
2022-11-22T13:48:45.228Z,84.9
2022-11-22T13:54:36.126Z,84.9
2022-11-22T14:00:25.479Z,85.4
2022-11-22T14:06:15.122Z,85.5
2022-11-22T14:12:05.346Z,85.5
2022-11-22T14:17:54.439Z,85.5
2022-11-22T14:26:03.378Z,84.7
2022-11-22T14:33:00.632Z,82.8
2022-11-22T14:38:48.586Z,82.1
2022-11-22T14:44:38.410Z,82.4
2022-11-22T14:50:28.414Z,82.4
2022-11-22T14:56:18.644Z,82.9
2022-11-22T15:02:09.751Z,83.4
2022-11-22T15:09:50.779Z,83.9
2022-11-22T15:57:13.157Z,84.4
2022-11-22T16:03:06.832Z,89.1
2022-11-22T16:08:56.183Z,89.9
2022-11-22T16:14:46.697Z,90.5
2022-11-22T16:20:36.665Z,91.4
2022-11-22T16:26:29.212Z,93.2
2022-11-22T16:32:19.536Z,93.9
2022-11-22T16:38:10.663Z,94.6
2022-11-22T16:44:00.332Z,95.3
2022-11-22T16:49:50.690Z,95.5
2022-11-22T16:55:41.001Z,96.5
2022-11-22T17:01:30.570Z,96.8
2022-11-22T17:07:22.186Z,97.4
2022-11-22T17:13:12.854Z,97.7
2022-11-22T17:19:03.404Z,98.2
2022-11-22T17:25:29.001Z,98.5
2022-11-22T17:31:20.456Z,98.9
2022-11-22T17:37:10.559Z,99.3
2022-11-22T17:43:01.409Z,99.3
2022-11-22T17:48:51.294Z,99.7
2022-11-22T17:56:22.985Z,100
2022-11-22T18:03:20.341Z,100
2022-11-22T18:12:52.492Z,100
2022-11-22T18:19:09.411Z,100
2022-11-22T18:25:03.369Z,100
2022-11-22T18:30:53.312Z,100
2022-11-22T18:37:53.150Z,100
2022-11-22T18:44:52.007Z,100
2022-11-22T18:51:51.867Z,100
2022-11-22T19:02:21.953Z,100
2022-11-22T19:08:09.155Z,100
2022-11-22T19:15:06.667Z,100
2022-11-22T19:20:57.951Z,100
2022-11-22T19:27:59.585Z,100
2022-11-22T19:37:19.510Z,100
2022-11-22T19:43:06.175Z,100
2022-11-22T19:50:11.733Z,100
2022-11-22T19:56:01.721Z,100
2022-11-22T20:01:55.904Z,100
2022-11-22T20:07:46.305Z,100
2022-11-22T20:18:21.994Z,100
2022-11-22T20:24:09.054Z,100
2022-11-22T20:29:58.838Z,100
2022-11-22T20:35:49.012Z,100
2022-11-22T20:41:41.160Z,100
2022-11-22T20:49:48.773Z,100
2022-11-22T20:55:36.578Z,100
2022-11-22T21:01:26.966Z,100
2022-11-22T21:07:17.952Z,100
2022-11-22T21:13:08.416Z,100
2022-11-22T21:18:59.330Z,100
2022-11-22T21:24:50.786Z,100
2022-11-22T21:30:42.658Z,100
2022-11-22T21:36:34.179Z,100
2022-11-22T21:42:28.728Z,100
2022-11-22T21:49:28.490Z,100
2022-11-22T21:55:17.539Z,100
2022-11-22T22:01:15.408Z,100
2022-11-22T22:07:06.131Z,100
2022-11-22T22:13:46.410Z,100
2022-11-22T22:19:36.672Z,100
2022-11-22T22:25:28.043Z,100
2022-11-22T22:31:19.294Z,100
2022-11-22T22:37:10.363Z,100
2022-11-22T22:43:00.075Z,100
2022-11-22T22:48:50.861Z,100
2022-11-22T22:54:41.872Z,100
2022-11-22T23:00:32.992Z,100
2022-11-22T23:06:22.731Z,98.9
2022-11-22T23:12:14.503Z,97.4
2022-11-22T23:18:05.601Z,96.6
2022-11-22T23:23:56.336Z,96.2
2022-11-22T23:29:46.614Z,95.5
2022-11-22T23:35:37.028Z,95.8
2022-11-22T23:41:28.722Z,95.4
2022-11-22T23:47:19.150Z,95.4
2022-11-22T23:53:09.873Z,95.5
2022-11-22T23:59:00.150Z,95.1
